createdAt,value
2023-01-18T00:02:07.831Z,24.23
2023-01-18T00:04:34.295Z,22.42
2023-01-18T00:07:00.776Z,19.38
2023-01-18T00:09:27.246Z,25.63
2023-01-18T00:11:53.769Z,18.33
2023-01-18T00:14:20.240Z,22.45
2023-01-18T00:16:46.670Z,25.33
2023-01-18T00:19:14.026Z,22.50
2023-01-18T00:21:40.923Z,24.67
2023-01-18T00:24:11.022Z,29.23
2023-01-18T00:26:38.086Z,17.60
2023-01-18T00:29:05.060Z,21.08
2023-01-18T00:31:31.757Z,19.27
2023-01-18T00:33:58.303Z,21.10
2023-01-18T00:36:24.835Z,22.30
2023-01-18T00:38:52.254Z,18.38
2023-01-18T00:41:20.174Z,19.88
2023-01-18T00:43:46.662Z,21.38
2023-01-18T00:46:16.278Z,27.55
2023-01-18T00:48:44.101Z,19.48
2023-01-18T00:51:14.064Z,21.52
2023-01-18T00:53:41.139Z,29.90
2023-01-18T00:56:09.691Z,23.08
2023-01-18T00:58:37.563Z,17.70
2023-01-18T01:01:06.374Z,19.55
2023-01-18T01:03:52.132Z,20.13
2023-01-18T01:06:43.802Z,22.50
2023-01-18T01:12:07.174Z,24.23
2023-01-18T01:14:54.987Z,26.95
2023-01-18T01:17:40.183Z,18.77
2023-01-18T01:20:26.594Z,22.40
2023-01-18T01:23:11.406Z,19.27
2023-01-18T01:25:57.186Z,22.30
2023-01-18T01:28:24.113Z,21.85
2023-01-18T01:30:50.726Z,21.08
2023-01-18T01:33:18.002Z,19.23
2023-01-18T01:35:44.557Z,24.45
2023-01-18T01:38:11.176Z,19.98
2023-01-18T01:40:37.597Z,18.85
2023-01-18T01:43:04.031Z,29.23
2023-01-18T01:45:32.154Z,33.85
2023-01-18T01:47:59.412Z,26.33
2023-01-18T01:50:31.344Z,17.10
2023-01-18T01:52:58.512Z,21.25
2023-01-18T01:55:30.196Z,21.23
2023-01-18T02:00:27.567Z,26.33
2023-01-18T02:03:00.732Z,24.58
2023-01-18T02:09:14.832Z,21.52
2023-01-18T02:11:42.299Z,25.63
2023-01-18T02:14:12.866Z,29.30
2023-01-18T02:17:10.361Z,30.43
2023-01-18T02:20:01.895Z,25.05
2023-01-18T02:22:48.495Z,28.77
2023-01-18T02:25:42.383Z,28.35
2023-01-18T02:28:10.420Z,24.20
2023-01-18T02:31:18.046Z,27.45
2023-01-18T02:34:02.297Z,24.17
2023-01-18T02:36:38.700Z,27.13
2023-01-18T02:39:23.563Z,19.80
2023-01-18T02:42:22.717Z,24.88
2023-01-18T02:45:08.010Z,31.73
2023-01-18T02:47:35.202Z,27.65
2023-01-18T02:50:03.309Z,24.20
2023-01-18T02:52:41.038Z,33.78
2023-01-18T02:55:24.419Z,26.83
2023-01-18T02:57:54.983Z,22.80
2023-01-18T03:00:23.389Z,22.70
2023-01-18T03:02:51.793Z,24.92
2023-01-18T03:05:19.195Z,22.67
2023-01-18T03:07:58.313Z,22.30
2023-01-18T03:10:31.078Z,20.23
2023-01-18T03:13:00.084Z,27.05
2023-01-18T03:15:56.355Z,20.58
2023-01-18T03:18:33.501Z,21.23
2023-01-18T03:21:05.541Z,20.10
2023-01-18T03:23:42.503Z,23.27
2023-01-18T03:26:14.590Z,25.00
2023-01-18T03:29:06.162Z,21.30
2023-01-18T03:32:03.409Z,20.55
2023-01-18T03:35:08.039Z,19.52
2023-01-18T03:37:40.752Z,18.38
2023-01-18T03:40:12.171Z,24.80
2023-01-18T03:42:51.915Z,24.73
2023-01-18T03:45:31.076Z,27.65
2023-01-18T03:47:57.632Z,29.63
2023-01-18T03:50:32.078Z,18.95
2023-01-18T03:53:04.624Z,22.92
2023-01-18T03:55:56.892Z,23.20
2023-01-18T03:58:32.364Z,27.85
2023-01-18T04:00:59.132Z,26.83
2023-01-18T04:03:25.671Z,20.48
2023-01-18T04:05:52.421Z,20.90
2023-01-18T04:08:21.879Z,19.40
2023-01-18T04:10:48.473Z,20.95
2023-01-18T04:13:14.985Z,20.02
2023-01-18T04:15:41.661Z,22.45
2023-01-18T04:18:08.160Z,23.73
2023-01-18T04:20:34.640Z,21.95
2023-01-18T04:23:01.411Z,19.20
2023-01-18T04:25:27.996Z,18.77
2023-01-18T04:27:54.480Z,19.10
2023-01-18T04:30:21.454Z,16.27
2023-01-18T04:32:47.901Z,19.85
2023-01-18T04:35:14.432Z,16.35
2023-01-18T04:37:41.373Z,21.88
2023-01-18T04:40:08.721Z,17.27
2023-01-18T04:42:35.221Z,16.90
2023-01-18T04:45:01.862Z,19.20
2023-01-18T04:47:29.060Z,28.17
2023-01-18T04:49:59.060Z,16.33
2023-01-18T04:52:26.717Z,18.00
2023-01-18T04:54:53.260Z,14.73
2023-01-18T04:57:19.655Z,11.57
2023-01-18T04:59:46.192Z,15.38
2023-01-18T05:02:15.128Z,14.23
2023-01-18T05:04:42.092Z,13.77
2023-01-18T05:07:08.591Z,13.05
2023-01-18T05:09:35.076Z,13.60
2023-01-18T05:12:01.838Z,14.80
2023-01-18T05:14:28.383Z,11.38
2023-01-18T05:16:54.862Z,16.13
2023-01-18T05:19:21.360Z,9.55
2023-01-18T05:21:47.937Z,18.90
2023-01-18T05:24:14.393Z,19.30
2023-01-18T05:26:40.874Z,11.73
2023-01-18T05:29:07.383Z,12.80
2023-01-18T05:31:53.329Z,16.83
2023-01-18T05:34:19.976Z,14.45
2023-01-18T05:36:47.619Z,11.60
2023-01-18T05:39:14.246Z,11.38
2023-01-18T05:41:40.662Z,10.25
2023-01-18T05:44:07.158Z,16.48
2023-01-18T05:46:33.676Z,15.00
2023-01-18T05:49:00.057Z,14.30
2023-01-18T05:51:26.610Z,21.58
2023-01-18T05:53:53.149Z,16.00
2023-01-18T05:56:19.647Z,9.70
2023-01-18T05:58:46.246Z,15.23
2023-01-18T06:01:13.148Z,14.70
2023-01-18T06:03:40.650Z,15.98
2023-01-18T06:06:07.419Z,17.50
2023-01-18T06:08:33.945Z,21.65
2023-01-18T06:11:00.927Z,11.80
2023-01-18T06:13:30.155Z,12.38
2023-01-18T06:15:58.180Z,13.93
2023-01-18T06:18:26.429Z,13.95
2023-01-18T06:20:54.791Z,14.73
2023-01-18T06:23:21.684Z,19.63
2023-01-18T06:25:48.128Z,18.02
2023-01-18T06:28:14.541Z,16.70
2023-01-18T06:30:42.938Z,14.93
2023-01-18T06:33:10.170Z,13.50
2023-01-18T06:35:37.234Z,13.57
2023-01-18T06:38:04.735Z,13.65
2023-01-18T06:40:31.321Z,18.63
2023-01-18T06:42:58.322Z,10.93
2023-01-18T06:45:25.912Z,13.45
2023-01-18T06:47:53.208Z,13.55
2023-01-18T06:50:20.227Z,12.38
2023-01-18T06:52:46.835Z,14.50
2023-01-18T06:55:14.443Z,14.00
2023-01-18T06:57:41.363Z,17.80
2023-01-18T07:00:09.409Z,14.10
2023-01-18T07:02:36.389Z,13.48
2023-01-18T07:05:04.127Z,15.60
2023-01-18T07:07:31.038Z,15.25
2023-01-18T07:09:57.621Z,15.18
2023-01-18T07:12:24.129Z,17.20
2023-01-18T07:14:51.138Z,19.83
2023-01-18T07:17:17.594Z,14.13
2023-01-18T07:19:44.796Z,16.50
2023-01-18T07:22:12.258Z,16.48
2023-01-18T07:24:38.865Z,20.02
2023-01-18T07:27:05.396Z,13.23
2023-01-18T07:29:31.942Z,18.55
2023-01-18T07:31:58.443Z,25.20
2023-01-18T07:34:25.074Z,16.80
2023-01-18T07:36:51.578Z,16.05
2023-01-18T07:39:18.077Z,12.02
2023-01-18T07:41:44.559Z,15.70
2023-01-18T07:44:11.767Z,11.63
2023-01-18T07:46:38.581Z,17.13
2023-01-18T07:49:05.850Z,11.38
2023-01-18T07:51:33.490Z,15.75
2023-01-18T07:53:59.992Z,18.63
2023-01-18T07:56:27.145Z,13.10
2023-01-18T07:58:53.741Z,10.38
2023-01-18T08:01:22.554Z,22.75
2023-01-18T08:03:50.329Z,10.68
2023-01-18T08:06:22.408Z,13.80
2023-01-18T08:08:48.985Z,14.65
2023-01-18T08:11:15.454Z,17.20
2023-01-18T08:13:41.905Z,15.82
2023-01-18T08:16:11.396Z,18.38
2023-01-18T08:18:38.446Z,15.15
2023-01-18T08:21:05.090Z,12.13
2023-01-18T08:23:31.578Z,18.58
2023-01-18T08:26:02.120Z,10.85
2023-01-18T08:28:28.657Z,11.93
2023-01-18T08:31:09.872Z,15.57
2023-01-18T08:33:41.569Z,17.83
2023-01-18T08:38:38.095Z,20.10
2023-01-18T08:41:05.113Z,16.10
2023-01-18T08:43:31.585Z,11.25
2023-01-18T08:45:58.021Z,17.38
2023-01-18T08:48:24.916Z,11.02
2023-01-18T08:50:51.809Z,20.20
2023-01-18T08:53:18.348Z,15.50
2023-01-18T08:55:44.853Z,17.00
2023-01-18T08:58:12.166Z,17.90
2023-01-18T09:00:38.724Z,13.10
2023-01-18T09:03:06.752Z,10.95
2023-01-18T09:05:35.337Z,9.35
2023-01-18T09:08:02.029Z,14.40
2023-01-18T09:10:28.610Z,9.35
2023-01-18T09:12:55.670Z,13.65
2023-01-18T09:15:22.212Z,14.15
2023-01-18T09:17:48.664Z,13.88
2023-01-18T09:20:18.523Z,13.45
2023-01-18T09:22:47.640Z,16.50
2023-01-18T09:25:14.320Z,14.50
2023-01-18T09:27:40.849Z,12.35
2023-01-18T09:30:09.588Z,10.20
2023-01-18T09:32:36.125Z,12.00
2023-01-18T09:35:02.930Z,11.55
2023-01-18T09:37:29.522Z,17.98
2023-01-18T09:39:56.112Z,22.05
2023-01-18T09:42:29.828Z,15.02
2023-01-18T09:45:00.729Z,13.15
2023-01-18T09:47:30.540Z,16.30
2023-01-18T09:49:59.353Z,21.00
2023-01-18T09:52:51.598Z,16.10
2023-01-18T09:55:42.685Z,14.77
2023-01-18T09:58:19.180Z,9.63
2023-01-18T10:00:48.568Z,20.52
2023-01-18T10:03:28.437Z,17.48
2023-01-18T10:06:08.870Z,17.83
2023-01-18T10:08:59.641Z,20.05
2023-01-18T10:11:50.487Z,16.63
2023-01-18T10:14:40.447Z,10.03
2023-01-18T10:17:14.590Z,14.40
2023-01-18T10:19:41.287Z,10.82
2023-01-18T10:22:33.380Z,16.02
2023-01-18T10:25:05.460Z,15.10
2023-01-18T10:28:12.903Z,13.88
2023-01-18T10:30:58.235Z,20.33
2023-01-18T10:33:33.320Z,18.38
2023-01-18T10:36:22.173Z,15.50
2023-01-18T10:38:52.122Z,19.88
2023-01-18T10:41:22.127Z,12.52
2023-01-18T10:43:48.742Z,24.10
2023-01-18T10:46:18.804Z,22.73
2023-01-18T10:48:53.680Z,17.33
2023-01-18T10:51:37.533Z,9.85
2023-01-18T10:54:26.129Z,20.80
2023-01-18T10:57:04.606Z,14.80
2023-01-18T10:59:39.684Z,19.63
2023-01-18T11:02:20.998Z,15.10
2023-01-18T11:04:56.671Z,18.73
2023-01-18T11:07:25.670Z,12.77
2023-01-18T11:09:55.643Z,21.88
2023-01-18T11:12:37.150Z,17.73
2023-01-18T11:15:15.798Z,17.02
2023-01-18T11:17:58.542Z,22.25
2023-01-18T11:20:30.844Z,31.10
2023-01-18T11:23:00.881Z,14.55
2023-01-18T11:25:37.134Z,17.50
2023-01-18T11:28:07.414Z,16.10
2023-01-18T11:30:34.843Z,14.95
2023-01-18T11:33:01.533Z,16.35
2023-01-18T11:35:34.164Z,16.25
2023-01-18T11:38:02.953Z,16.55
2023-01-18T11:40:32.291Z,26.95
2023-01-18T11:43:04.343Z,19.90
2023-01-18T11:45:40.861Z,17.60
2023-01-18T11:48:13.289Z,13.95
2023-01-18T11:50:54.207Z,16.65
2023-01-18T11:54:02.089Z,22.25
2023-01-18T11:56:42.426Z,12.05
2023-01-18T11:59:17.768Z,16.17
2023-01-18T12:01:56.397Z,14.57
2023-01-18T12:04:39.167Z,21.13
2023-01-18T12:07:32.151Z,18.17
2023-01-18T12:10:01.322Z,14.40
2023-01-18T12:12:55.925Z,16.27
2023-01-18T12:16:02.170Z,11.07
2023-01-18T12:18:47.733Z,16.55
2023-01-18T12:21:24.153Z,21.83
2023-01-18T12:24:16.448Z,14.55
2023-01-18T12:27:00.242Z,16.25
2023-01-18T12:29:58.010Z,19.02
2023-01-18T12:32:43.740Z,24.33
2023-01-18T12:35:23.747Z,24.88
2023-01-18T12:37:50.984Z,22.03
2023-01-18T12:40:39.032Z,18.38
2023-01-18T12:43:27.141Z,17.48
2023-01-18T12:46:07.421Z,18.20
2023-01-18T12:48:53.139Z,15.15
2023-01-18T12:51:23.879Z,24.25
2023-01-18T12:54:26.794Z,21.42
2023-01-18T12:56:56.388Z,26.02
2023-01-18T12:59:35.777Z,15.52
2023-01-18T13:02:22.295Z,16.55
2023-01-18T13:04:55.425Z,13.52
2023-01-18T13:07:30.016Z,12.27
2023-01-18T13:09:57.472Z,20.25
2023-01-18T13:12:25.917Z,16.75
2023-01-18T13:15:01.815Z,16.85
2023-01-18T13:17:47.288Z,14.73
2023-01-18T13:20:29.591Z,17.75
2023-01-18T13:22:58.896Z,13.82
2023-01-18T13:25:40.592Z,12.32
2023-01-18T13:30:56.522Z,19.42
2023-01-18T13:33:26.982Z,22.63
2023-01-18T13:35:56.416Z,16.55
2023-01-18T13:38:40.096Z,23.45
2023-01-18T13:41:11.853Z,22.67
2023-01-18T13:43:38.453Z,13.50
2023-01-18T13:46:07.777Z,20.27
2023-01-18T13:48:55.452Z,27.55
2023-01-18T13:51:40.341Z,23.60
2023-01-18T13:54:18.647Z,20.02
2023-01-18T13:57:05.517Z,28.08
2023-01-18T13:59:35.591Z,14.45
2023-01-18T14:02:17.356Z,16.58
2023-01-18T14:04:43.996Z,20.05
2023-01-18T14:07:23.044Z,23.20
2023-01-18T14:09:50.802Z,24.13
2023-01-18T14:12:50.767Z,19.30
2023-01-18T14:15:30.451Z,20.45
2023-01-18T14:17:59.212Z,26.13
2023-01-18T14:20:45.297Z,19.13
2023-01-18T14:23:39.284Z,14.23
2023-01-18T14:26:12.075Z,13.65
2023-01-18T14:28:48.020Z,17.48
2023-01-18T14:31:20.991Z,15.20
2023-01-18T14:33:47.841Z,14.23
2023-01-18T14:36:26.090Z,13.50
2023-01-18T14:39:16.270Z,21.83
2023-01-18T14:41:49.753Z,17.55
2023-01-18T14:44:56.809Z,16.55
2023-01-18T14:47:28.278Z,18.60
2023-01-18T14:49:55.723Z,13.80
2023-01-18T14:52:27.498Z,20.30
2023-01-18T14:54:55.811Z,19.83
2023-01-18T14:57:24.012Z,20.13
2023-01-18T15:00:08.032Z,18.73
2023-01-18T15:02:38.792Z,15.90
2023-01-18T15:05:17.231Z,22.08
2023-01-18T15:07:46.410Z,26.52
2023-01-18T15:10:18.684Z,23.77
2023-01-18T15:12:49.562Z,18.30
2023-01-18T15:15:26.093Z,8.13
2023-01-18T15:17:56.483Z,16.00
2023-01-18T15:20:23.142Z,18.13
2023-01-18T15:22:51.011Z,19.75
2023-01-18T15:25:24.249Z,23.25
2023-01-18T15:27:52.109Z,13.40
2023-01-18T15:30:22.092Z,16.60
2023-01-18T15:32:52.949Z,22.98
2023-01-18T15:35:22.685Z,16.63
2023-01-18T15:37:49.275Z,8.02
2023-01-18T15:40:15.903Z,12.77
2023-01-18T15:42:43.885Z,20.67
2023-01-18T15:45:19.590Z,14.20
2023-01-18T15:47:50.163Z,20.95
2023-01-18T15:50:22.298Z,19.42
2023-01-18T15:53:06.321Z,17.58
2023-01-18T15:55:58.423Z,25.27
2023-01-18T15:58:40.802Z,16.88
2023-01-18T16:01:13.110Z,20.75
2023-01-18T16:03:50.093Z,23.45
2023-01-18T16:06:31.947Z,21.98
2023-01-18T16:09:21.008Z,23.75
2023-01-18T16:11:52.722Z,19.55
2023-01-18T16:14:27.833Z,21.95
2023-01-18T16:17:20.816Z,21.40
2023-01-18T16:19:53.646Z,15.43
2023-01-18T16:22:26.288Z,19.02
2023-01-18T16:24:56.598Z,20.83
2023-01-18T16:27:27.647Z,27.63
2023-01-18T16:30:05.393Z,13.38
2023-01-18T16:32:34.781Z,20.58
2023-01-18T16:35:21.054Z,19.38
2023-01-18T16:37:48.918Z,20.30
2023-01-18T16:40:23.396Z,20.77
2023-01-18T16:43:01.375Z,23.30
2023-01-18T16:45:30.082Z,21.88
2023-01-18T16:47:56.675Z,20.20
2023-01-18T16:50:23.506Z,25.58
2023-01-18T16:52:50.029Z,27.63
2023-01-18T16:55:17.955Z,24.80
2023-01-18T16:57:44.799Z,24.65
2023-01-18T17:00:24.076Z,23.60
2023-01-18T17:02:50.644Z,26.13
2023-01-18T17:05:17.478Z,22.65
2023-01-18T17:07:44.045Z,24.02
2023-01-18T17:10:26.099Z,25.20
2023-01-18T17:12:52.683Z,17.92
2023-01-18T17:15:20.239Z,18.95
2023-01-18T17:17:47.505Z,26.83
2023-01-18T17:20:21.049Z,28.20
2023-01-18T17:22:47.557Z,41.63
2023-01-18T17:25:15.291Z,34.50
2023-01-18T17:27:42.105Z,26.45
2023-01-18T17:30:10.469Z,24.42
2023-01-18T17:32:37.089Z,20.05
2023-01-18T17:35:05.693Z,18.60
2023-01-18T17:37:34.098Z,22.00
2023-01-18T17:40:16.349Z,20.73
2023-01-18T17:42:44.723Z,31.95
2023-01-18T17:45:14.335Z,25.80
2023-01-18T17:47:42.916Z,28.55
2023-01-18T17:50:12.142Z,30.38
2023-01-18T17:52:40.410Z,26.48
2023-01-18T17:55:10.355Z,27.48
2023-01-18T17:57:36.949Z,24.13
2023-01-18T18:00:04.824Z,27.42
2023-01-18T18:02:31.293Z,24.85
2023-01-18T18:04:59.361Z,23.35
2023-01-18T18:07:26.397Z,23.17
2023-01-18T18:09:58.118Z,24.83
2023-01-18T18:12:24.552Z,32.00
2023-01-18T18:14:53.289Z,26.63
2023-01-18T18:17:20.031Z,29.25
2023-01-18T18:19:46.467Z,23.10
2023-01-18T18:22:12.928Z,31.33
2023-01-18T18:24:39.559Z,24.48
2023-01-18T18:27:06.124Z,29.83
2023-01-18T18:29:33.179Z,22.90
2023-01-18T18:31:59.708Z,30.00
2023-01-18T18:34:26.233Z,29.98
2023-01-18T18:36:52.697Z,26.27
2023-01-18T18:39:19.207Z,32.22
2023-01-18T18:41:48.289Z,28.17
2023-01-18T18:44:15.071Z,34.35
2023-01-18T18:46:42.026Z,30.15
2023-01-18T18:49:08.535Z,30.13
2023-01-18T18:51:37.921Z,32.17
2023-01-18T18:54:05.002Z,30.17
2023-01-18T18:56:31.866Z,27.50
2023-01-18T18:58:58.428Z,25.83
2023-01-18T19:01:29.205Z,36.08
2023-01-18T19:03:58.484Z,20.27
2023-01-18T19:06:25.841Z,36.17
2023-01-18T19:08:52.407Z,30.23
2023-01-18T19:11:18.945Z,29.23
2023-01-18T19:13:46.336Z,33.95
2023-01-18T19:16:14.007Z,29.02
2023-01-18T19:18:41.179Z,28.05
2023-01-18T19:21:07.729Z,25.05
2023-01-18T19:23:34.551Z,28.75
2023-01-18T19:26:01.164Z,32.92
2023-01-18T19:28:27.739Z,27.60
2023-01-18T19:30:54.928Z,24.38
2023-01-18T19:33:21.433Z,29.25
2023-01-18T19:35:47.863Z,29.35
2023-01-18T19:38:14.909Z,26.38
2023-01-18T19:40:41.949Z,37.80
2023-01-18T19:43:08.425Z,31.15
2023-01-18T19:45:37.694Z,31.92
2023-01-18T19:48:05.101Z,32.60
2023-01-18T19:50:31.901Z,31.77
2023-01-18T19:52:58.794Z,35.92
2023-01-18T19:55:25.596Z,25.42
2023-01-18T19:57:55.156Z,31.50
2023-01-18T20:00:21.803Z,30.90
2023-01-18T20:02:48.396Z,29.92
2023-01-18T20:05:14.987Z,29.17
2023-01-18T20:07:41.465Z,32.17
2023-01-18T20:10:08.382Z,29.10
2023-01-18T20:12:35.040Z,32.20
2023-01-18T20:15:01.702Z,37.65
2023-01-18T20:17:28.196Z,30.23
2023-01-18T20:19:54.741Z,37.47
2023-01-18T20:22:22.497Z,35.22
2023-01-18T20:24:49.298Z,34.97
2023-01-18T20:27:17.329Z,34.03
2023-01-18T20:29:44.906Z,30.60
2023-01-18T20:32:17.128Z,38.53
2023-01-18T20:34:46.433Z,43.72
2023-01-18T20:37:13.704Z,44.13
2023-01-18T20:39:40.244Z,32.78
2023-01-18T20:42:06.819Z,44.45
2023-01-18T20:44:33.396Z,37.10
2023-01-18T20:46:59.911Z,40.92
2023-01-18T20:49:37.296Z,41.15
2023-01-18T20:52:05.115Z,33.90
2023-01-18T20:54:31.618Z,32.15
2023-01-18T20:56:58.818Z,35.38
2023-01-18T20:59:25.630Z,32.65
2023-01-18T21:01:52.992Z,32.33
2023-01-18T21:04:22.372Z,35.55
2023-01-18T21:06:49.815Z,35.08
2023-01-18T21:09:16.940Z,39.60
2023-01-18T21:11:43.807Z,39.35
2023-01-18T21:14:10.387Z,36.45
2023-01-18T21:16:37.009Z,34.17
2023-01-18T21:19:03.640Z,36.20
2023-01-18T21:21:31.772Z,45.30
2023-01-18T21:23:58.645Z,36.63
2023-01-18T21:26:25.201Z,47.03
2023-01-18T21:28:51.677Z,39.60
2023-01-18T21:31:18.305Z,37.55
2023-01-18T21:33:44.961Z,40.33
2023-01-18T21:36:17.619Z,39.22
2023-01-18T21:38:44.598Z,37.50
2023-01-18T21:41:30.031Z,38.97
2023-01-18T21:44:15.436Z,46.85
2023-01-18T21:46:49.705Z,47.05
2023-01-18T21:49:52.194Z,40.15
2023-01-18T21:52:39.665Z,45.10
2023-01-18T21:55:06.264Z,42.05
2023-01-18T21:57:32.706Z,42.67
2023-01-18T21:59:59.124Z,43.20
2023-01-18T22:02:25.773Z,53.60
2023-01-18T22:05:01.931Z,46.55
2023-01-18T22:07:30.243Z,39.17
2023-01-18T22:10:06.105Z,40.30
2023-01-18T22:12:35.543Z,42.50
2023-01-18T22:15:03.034Z,44.55
2023-01-18T22:17:29.864Z,43.45
2023-01-18T22:19:56.517Z,40.67
2023-01-18T22:22:22.965Z,36.67
2023-01-18T22:24:49.630Z,36.05
2023-01-18T22:27:16.193Z,40.75
2023-01-18T22:29:42.799Z,37.08
2023-01-18T22:32:09.332Z,31.38
2023-01-18T22:34:36.341Z,32.58
2023-01-18T22:37:03.292Z,33.13
2023-01-18T22:39:29.943Z,39.50
2023-01-18T22:41:56.425Z,38.38
2023-01-18T22:44:23.129Z,36.55
2023-01-18T22:46:49.618Z,33.80
2023-01-18T22:49:16.110Z,33.92
2023-01-18T22:51:42.547Z,42.95
2023-01-18T22:54:09.063Z,36.15
2023-01-18T22:56:35.742Z,32.03
2023-01-18T22:59:02.274Z,32.60
2023-01-18T23:01:31.453Z,33.90
2023-01-18T23:04:00.265Z,30.48
2023-01-18T23:06:28.143Z,37.60
2023-01-18T23:08:55.892Z,34.28
2023-01-18T23:11:25.430Z,30.98
2023-01-18T23:14:15.912Z,32.30
2023-01-18T23:17:02.030Z,31.30
2023-01-18T23:19:30.447Z,31.30
2023-01-18T23:21:57.751Z,33.05
2023-01-18T23:24:24.442Z,33.95
2023-01-18T23:26:51.935Z,27.42
2023-01-18T23:29:18.953Z,30.92
2023-01-18T23:31:46.703Z,32.97
2023-01-18T23:34:13.280Z,31.50
2023-01-18T23:36:39.847Z,28.13
2023-01-18T23:39:25.142Z,28.40
2023-01-18T23:42:10.371Z,32.42
2023-01-18T23:44:55.625Z,31.77
2023-01-18T23:47:41.006Z,30.58
2023-01-18T23:50:26.565Z,33.67
2023-01-18T23:53:11.855Z,33.72
2023-01-18T23:55:38.389Z,37.00
2023-01-18T23:58:04.923Z,32.72
